Terminal Aerodrome Forecast
Issued by NWS

Home | Current Version | Previous Version | Text Only | Print | Product List | Glossary On
Versions: 1 2 3 4 5 6 7 8 9 10 11 12 13 14 15 16 17 18 19 20 21 22 23 24 25
000
FTUS46 KOTX 240520
TAFSFF
TAF
KSFF 240520Z 2406/2506 22012KT P6SM BKN040 BKN100
     FM241000 22009KT P6SM BKN040
     FM241600 21015G22KT P6SM BKN040
     FM250300 25005KT P6SM SCT060=

USA.gov is the U.S. government's official web portal to all federal, state and local government web resources and services.